Time;durP1;ratioP1;P1;durP2;ratioP2;P2;SDS_P1;SDS_P2;PMS_P1;PMS_P2;Temp;Humidity;BMP_temperature;BMP_pressure;BME280_temperature;BME280_humidity;BME280_pressure;Samples;Min_cycle;Max_cycle;Signal;HPM_P1;HPM_P2
2021/08/26 00:06:56;;;;;;;6.70;5.32;;;;;;;29.65;66.60;100786.13;5035165;28;70067;-37
2021/08/26 00:09:26;;;;;;;10.38;5.65;;;;;;;29.63;67.23;100788.22;5034951;28;67014;-40
2021/08/26 00:11:57;;;;;;;6.05;5.45;;;;;;;29.70;67.05;100789.03;5033946;28;70312;-39
2021/08/26 00:14:27;;;;;;;5.30;4.82;;;;;;;29.67;66.94;100788.63;5034303;28;65256;-39
2021/08/26 00:16:57;;;;;;;6.47;5.00;;;;;;;29.70;67.19;100793.59;5031888;28;70442;-39
2021/08/26 00:19:30;;;;;;;5.97;5.13;;;;;;;29.74;67.25;100794.84;5034523;28;66731;-39
2021/08/26 00:22:02;;;;;;;8.13;5.95;;;;;;;29.74;67.53;100790.25;5030942;28;70124;-38
2021/08/26 00:24:33;;;;;;;9.00;6.32;;;;;;;29.75;68.39;100789.19;5031246;28;66586;-39
2021/08/26 00:27:04;;;;;;;28.10;9.68;;;;;;;29.74;68.14;100784.84;5015443;28;70300;-39
2021/08/26 00:29:35;;;;;;;14.20;8.30;;;;;;;29.72;68.50;100786.94;5031571;28;65791;-38
2021/08/26 00:32:06;;;;;;;16.42;7.43;;;;;;;29.77;68.85;100800.63;5031960;28;69223;-39
2021/08/26 00:34:37;;;;;;;9.95;6.18;;;;;;;29.72;68.95;100805.84;5034358;28;65659;-39
2021/08/26 00:37:07;;;;;;;6.22;4.97;;;;;;;29.70;69.68;100807.97;5031598;28;69963;-43
2021/08/26 00:39:38;;;;;;;6.07;4.82;;;;;;;29.74;69.25;100811.88;5001540;28;66140;-38
2021/08/26 00:42:09;;;;;;;9.52;4.80;;;;;;;29.74;70.08;100811.88;5033643;28;70352;-40
2021/08/26 00:44:39;;;;;;;6.78;3.85;;;;;;;29.71;69.75;100811.50;5027741;28;65570;-39
2021/08/26 00:47:10;;;;;;;5.13;4.72;;;;;;;29.68;70.19;100818.16;5027396;28;70519;-39
2021/08/26 00:49:44;;;;;;;5.20;4.20;;;;;;;29.57;69.36;100807.97;5031802;28;66303;-40
2021/08/26 00:52:15;;;;;;;6.50;4.63;;;;;;;29.64;69.98;100827.72;5013037;28;69288;-40
2021/08/26 00:54:48;;;;;;;6.00;4.15;;;;;;;29.70;69.93;100826.88;5023776;28;65332;-39
2021/08/26 00:57:24;;;;;;;8.32;4.57;;;;;;;29.65;69.42;100818.59;5026134;28;69728;-39
2021/08/26 00:59:55;;;;;;;4.55;4.15;;;;;;;29.69;69.30;100830.63;5029784;28;65683;-39
2021/08/26 01:02:56;;;;;;;7.18;3.70;;;;;;;29.71;69.48;100839.34;4994438;28;69005;-38
2021/08/26 01:05:52;;;;;;;5.63;3.67;;;;;;;29.42;69.63;100774.94;5024086;28;66597;-39
2021/08/26 01:34:42;;;;;;;11.18;3.47;;;;;;;30.16;68.68;100841.22;5102504;27;43928;-39
2021/08/26 01:37:17;;;;;;;3.63;2.80;;;;;;;30.11;68.40;100841.03;5101688;27;70246;-40
2021/08/26 01:39:52;;;;;;;7.43;3.08;;;;;;;30.13;68.60;100847.91;5098732;27;65178;-38
2021/08/26 01:42:26;;;;;;;3.10;2.65;;;;;;;30.13;68.91;100857.91;5078435;27;70144;-39
2021/08/26 01:45:10;;;;;;;5.97;3.00;;;;;;;30.19;69.52;100862.44;5085903;27;64303;-39
2021/08/26 01:48:00;;;;;;;7.68;2.78;;;;;;;30.23;68.30;100867.25;5084300;27;69514;-43
2021/08/26 01:50:36;;;;;;;5.20;2.22;;;;;;;30.24;68.37;100852.66;5068234;27;65323;-40
2021/08/26 01:53:07;;;;;;;2.28;2.00;;;;;;;30.24;69.06;100860.78;5055862;27;70429;-39
2021/08/26 01:55:41;;;;;;;2.97;2.60;;;;;;;30.28;69.08;100856.59;5079033;27;66490;-40
2021/08/26 01:58:14;;;;;;;4.18;2.85;;;;;;;30.32;68.77;100858.88;5107180;27;69940;-39
2021/08/26 02:00:55;;;;;;;3.20;2.08;;;;;;;30.35;69.28;100861.97;5078062;27;66517;-39
2021/08/26 02:03:30;;;;;;;3.45;2.58;;;;;;;30.38;69.13;100855.28;5115363;27;70699;-39
2021/08/26 02:06:04;;;;;;;2.75;2.55;;;;;;;30.44;68.45;100859.81;5081402;27;66688;-39
2021/08/26 02:08:36;;;;;;;5.97;2.90;;;;;;;30.41;68.49;100849.44;5080232;27;70053;-39
2021/08/26 02:11:09;;;;;;;4.15;2.80;;;;;;;30.48;68.38;100850.25;5080291;27;66119;-39
2021/08/26 02:13:42;;;;;;;3.22;2.92;;;;;;;30.52;68.46;100856.88;5083217;27;70647;-38
2021/08/26 02:16:17;;;;;;;3.85;2.42;;;;;;;30.50;68.67;100858.94;5081532;27;66660;-39
2021/08/26 02:18:48;;;;;;;2.55;2.28;;;;;;;30.48;68.57;100847.53;5076674;27;70138;-38
2021/08/26 02:21:32;;;;;;;2.33;1.98;;;;;;;30.57;68.19;100854.34;5081470;27;65320;-40
2021/08/26 02:24:07;;;;;;;6.22;2.97;;;;;;;30.54;67.98;100849.34;5078258;27;69767;-39
2021/08/26 02:26:43;;;;;;;4.22;2.45;;;;;;;30.60;68.04;100856.59;5072865;27;65343;-39
2021/08/26 02:29:17;;;;;;;10.65;2.42;;;;;;;30.55;67.60;100845.59;5060962;27;71730;-39
2021/08/26 02:31:48;;;;;;;4.85;2.25;;;;;;;30.67;67.67;100853.84;5051994;27;65476;-39
2021/08/26 02:34:22;;;;;;;2.78;2.58;;;;;;;30.68;67.95;100861.75;5067114;27;70351;-40
2021/08/26 02:36:57;;;;;;;5.82;3.05;;;;;;;30.64;67.63;100843.44;5066798;27;66597;-40
2021/08/26 02:39:37;;;;;;;4.18;2.60;;;;;;;30.71;67.34;100850.47;5063982;27;70212;-40
2021/08/26 02:42:07;;;;;;;2.88;2.20;;;;;;;30.69;67.24;100841.75;5063182;27;65477;-38
2021/08/26 02:44:39;;;;;;;8.10;2.50;;;;;;;30.79;67.04;100840.44;5068267;27;70582;-39
2021/08/26 02:47:24;;;;;;;3.95;2.17;;;;;;;30.85;66.73;100850.41;5077437;27;66719;-40
2021/08/26 02:50:02;;;;;;;3.50;2.25;;;;;;;30.89;66.96;100840.78;5070324;27;69911;-40
2021/08/26 02:52:50;;;;;;;3.95;2.28;;;;;;;30.82;66.90;100821.06;5067368;27;66334;-39
2021/08/26 02:55:25;;;;;;;2.67;2.30;;;;;;;30.93;67.13;100831.19;5068777;27;70309;-40
2021/08/26 02:58:01;;;;;;;1.92;1.70;;;;;;;30.90;66.51;100815.38;5048512;27;65404;-39
2021/08/26 03:00:35;;;;;;;2.08;1.88;;;;;;;30.99;66.63;100837.59;5048422;27;70469;-38
2021/08/26 03:03:05;;;;;;;2.08;1.88;;;;;;;30.98;65.98;100831.34;5063153;27;65947;-38
2021/08/26 03:05:37;;;;;;;3.25;1.85;;;;;;;31.01;66.01;100839.03;5067034;27;70917;-39
2021/08/26 03:08:08;;;;;;;2.75;1.95;;;;;;;31.02;66.24;100835.25;5067657;27;66603;-38
2021/08/26 03:10:41;;;;;;;2.22;2.03;;;;;;;31.00;66.09;100831.94;5049645;27;70424;-39
2021/08/26 03:13:15;;;;;;;1.63;1.52;;;;;;;31.02;66.22;100829.84;5063705;27;66110;-38
2021/08/26 03:15:47;;;;;;;3.78;1.60;;;;;;;31.01;66.33;100828.19;5066846;27;68910;-39
2021/08/26 03:18:17;;;;;;;2.35;1.58;;;;;;;31.06;65.62;100825.63;5070095;27;66180;-39
2021/08/26 03:20:50;;;;;;;2.22;1.67;;;;;;;31.07;65.45;100831.88;5082905;27;70569;-38
2021/08/26 03:23:21;;;;;;;2.63;1.70;;;;;;;31.04;65.73;100822.31;5067733;27;66429;-38
2021/08/26 03:25:52;;;;;;;2.50;1.98;;;;;;;31.07;64.88;100830.00;5069912;27;69986;-38
2021/08/26 03:28:24;;;;;;;1.92;1.60;;;;;;;31.07;65.58;100821.88;5064045;27;66544;-39
2021/08/26 03:30:57;;;;;;;4.07;1.83;;;;;;;31.07;65.17;100811.03;5075754;27;69893;-39
2021/08/26 03:33:27;;;;;;;3.25;1.83;;;;;;;31.10;65.52;100810.59;5069075;27;67004;-39
2021/08/26 03:36:00;;;;;;;2.45;1.70;;;;;;;31.06;65.50;100803.13;5069234;27;69908;-38
2021/08/26 03:38:30;;;;;;;;;;;;;;;30.86;65.91;100804.13;5073191;27;64938;-38
2021/08/26 03:41:02;;;;;;;7.72;1.50;;;;;;;31.13;65.40;100796.59;5070934;27;69179;-40
2021/08/26 03:43:33;;;;;;;5.38;1.65;;;;;;;31.17;65.63;100805.09;5073023;27;66170;-39
2021/08/26 03:46:07;;;;;;;2.58;1.67;;;;;;;31.15;64.87;100797.19;5063682;27;70139;-39
2021/08/26 03:48:39;;;;;;;2.72;1.73;;;;;;;31.17;64.30;100799.66;5071390;27;66858;-39
2021/08/26 03:51:09;;;;;;;2.13;1.63;;;;;;;31.17;63.59;100791.53;5072497;27;70036;-39
2021/08/26 03:53:44;;;;;;;12.35;1.38;;;;;;;31.22;63.67;100801.72;5040725;28;66768;-42
2021/08/26 03:56:19;;;;;;;3.35;2.17;;;;;;;31.21;63.11;100800.91;5064952;27;70626;-39
2021/08/26 03:58:49;;;;;;;2.22;2.03;;;;;;;31.17;62.95;100795.09;5065860;27;65466;-40
2021/08/26 04:01:22;;;;;;;6.90;1.80;;;;;;;31.20;63.13;100792.97;5065288;27;69911;-39
2021/08/26 04:03:55;;;;;;;;;;;;;;;30.99;63.32;100795.06;5069608;27;66063;-39
2021/08/26 04:06:25;;;;;;;8.10;1.77;;;;;;;31.24;62.35;100794.19;5064996;27;69445;-39
2021/08/26 04:08:59;;;;;;;2.22;0.93;;;;;;;31.25;62.40;100785.00;5073678;27;67029;-39
2021/08/26 04:11:38;;;;;;;1.42;1.02;;;;;;;31.28;62.33;100784.56;5071598;27;69577;-38
2021/08/26 04:14:15;;;;;;;1.20;0.90;;;;;;;31.34;62.51;100786.34;5068809;27;66287;-38
2021/08/26 04:16:53;;;;;;;4.65;1.17;;;;;;;31.36;62.63;100781.56;5075116;27;69997;-41
2021/08/26 04:19:27;;;;;;;1.00;0.77;;;;;;;31.39;62.45;100775.69;5070108;27;65182;-39
2021/08/26 04:22:00;;;;;;;1.90;0.75;;;;;;;31.41;62.03;100773.59;5072874;27;70231;-39
2021/08/26 04:24:39;;;;;;;1.13;0.90;;;;;;;31.38;62.71;100763.22;5066442;27;66368;-38
2021/08/26 04:27:18;;;;;;;1.45;0.70;;;;;;;31.36;62.26;100760.72;5073141;27;69842;-38
2021/08/26 04:30:06;;;;;;;1.38;0.90;;;;;;;31.48;62.39;100768.09;5066809;27;66172;-38
2021/08/26 04:32:48;;;;;;;5.53;0.60;;;;;;;31.48;62.25;100774.34;5063652;27;69939;-37
2021/08/26 04:35:18;;;;;;;1.83;0.70;;;;;;;31.47;62.34;100756.41;5079290;27;66467;-38
2021/08/26 04:37:56;;;;;;;1.08;0.85;;;;;;;31.52;62.40;100759.28;5074527;27;70410;-38
2021/08/26 04:40:26;;;;;;;17.25;2.33;;;;;;;31.53;62.98;100749.25;5068817;27;66523;-39
2021/08/26 04:43:02;;;;;;;7.10;2.85;;;;;;;31.56;62.39;100759.63;5068263;27;70046;-38
2021/08/26 04:45:38;;;;;;;14.15;3.20;;;;;;;31.56;62.64;100755.03;5073476;27;67225;-37
2021/08/26 04:48:12;;;;;;;3.85;3.47;;;;;;;31.58;62.95;100752.13;5052415;28;70041;-38
2021/08/26 04:50:43;;;;;;;4.70;3.20;;;;;;;31.55;62.90;100750.69;5074720;27;66243;-38
2021/08/26 04:53:17;;;;;;;3.92;3.45;;;;;;;31.60;62.73;100750.84;5069175;27;70037;-38
2021/08/26 04:55:54;;;;;;;6.05;3.00;;;;;;;31.58;63.03;100742.09;5067064;27;66806;-38
2021/08/26 04:58:28;;;;;;;3.15;2.90;;;;;;;31.63;62.62;100746.84;5073562;27;70122;-38
2021/08/26 05:01:02;;;;;;;5.25;2.95;;;;;;;31.62;62.98;100731.59;5072456;27;65301;-38
2021/08/26 05:03:38;;;;;;;12.27;3.30;;;;;;;31.67;63.40;100739.88;5052874;28;69595;-37
2021/08/26 05:06:19;;;;;;;3.72;2.65;;;;;;;31.70;63.24;100735.91;5068819;27;65208;-40
2021/08/26 05:08:56;;;;;;;2.70;2.50;;;;;;;31.73;62.87;100732.72;5074350;27;69753;-38
2021/08/26 05:11:34;;;;;;;3.03;2.80;;;;;;;31.72;63.44;100733.78;5057383;27;65803;-38
2021/08/26 05:14:18;;;;;;;2.50;2.30;;;;;;;31.69;62.81;100726.94;5053187;27;69826;-38
2021/08/26 05:17:01;;;;;;;3.55;1.95;;;;;;;31.61;61.60;100719.94;5067953;27;65287;-39
2021/08/26 05:19:47;;;;;;;2.83;2.20;;;;;;;31.51;60.03;100718.81;5071660;27;69157;-39
2021/08/26 05:22:19;;;;;;;4.40;1.40;;;;;;;31.43;58.94;100717.28;5077628;27;65543;-38
2021/08/26 05:24:51;;;;;;;4.00;1.85;;;;;;;31.34;58.62;100705.91;5058785;27;70519;-38
2021/08/26 05:27:22;;;;;;;2.10;1.45;;;;;;;31.22;57.03;100698.75;5076645;27;66245;-37
2021/08/26 05:30:16;;;;;;;2.25;1.17;;;;;;;31.16;56.48;100698.59;5060720;27;70130;-37
2021/08/26 05:32:57;;;;;;;7.20;1.00;;;;;;;31.08;55.66;100693.47;5059007;27;65707;-37
2021/08/26 05:35:34;;;;;;;2.22;1.17;;;;;;;31.03;55.02;100685.19;5033278;27;69603;-37
2021/08/26 05:38:07;;;;;;;1.75;1.08;;;;;;;30.95;54.02;100682.78;5070604;27;66188;-38
2021/08/26 05:40:46;;;;;;;9.80;1.33;;;;;;;30.90;53.84;100674.53;5050589;27;70083;-37
2021/08/26 05:43:23;;;;;;;2.70;0.70;;;;;;;30.86;52.92;100676.03;5034379;27;65992;-38
2021/08/26 05:46:07;;;;;;;4.90;0.98;;;;;;;30.84;53.36;100664.56;5039119;27;69304;-38
2021/08/26 05:48:37;;;;;;;1.45;0.82;;;;;;;30.80;52.05;100674.22;5070940;27;66222;-38
2021/08/26 05:51:08;;;;;;;1.63;0.98;;;;;;;30.79;51.80;100653.59;5072424;27;69263;-37
2021/08/26 05:53:39;;;;;;;4.93;0.80;;;;;;;30.74;51.88;100648.84;5074781;27;66179;-37
2021/08/26 05:56:11;;;;;;;3.80;0.80;;;;;;;30.68;50.68;100639.72;5078304;27;69781;-38
2021/08/26 05:58:43;;;;;;;;;;;;;;;30.50;51.02;100650.53;5072962;27;64974;-38
2021/08/26 06:01:14;;;;;;;5.40;1.00;;;;;;;30.64;50.08;100630.38;5071411;27;70924;-38
2021/08/26 06:03:57;;;;;;;2.08;0.88;;;;;;;30.72;50.47;100640.91;5081274;27;65643;-38
2021/08/26 06:06:28;;;;;;;1.25;0.90;;;;;;;30.72;49.63;100632.78;5054262;28;70263;-38
2021/08/26 06:08:59;;;;;;;;;;;;;;;30.52;50.61;100640.31;5078309;27;66574;-38
2021/08/26 06:11:44;;;;;;;4.35;1.20;;;;;;;30.70;50.55;100626.81;5070552;27;68792;-37
2021/08/26 06:14:19;;;;;;;1.45;0.90;;;;;;;30.75;49.19;100618.00;5082708;27;65721;-40
2021/08/26 06:16:50;;;;;;;1.50;1.25;;;;;;;30.73;49.48;100604.69;5078848;27;71657;-37
2021/08/26 06:19:21;;;;;;;5.78;0.98;;;;;;;30.77;48.63;100601.53;5080054;27;66246;-39
2021/08/26 06:21:53;;;;;;;4.32;0.95;;;;;;;30.80;48.15;100607.34;5074282;27;69636;-39
2021/08/26 06:24:27;;;;;;;1.08;0.73;;;;;;;30.80;48.00;100598.41;5075992;27;65877;-44
2021/08/26 06:27:02;;;;;;;7.75;0.93;;;;;;;30.78;48.05;100605.88;5025296;27;70960;-46
2021/08/26 06:29:33;;;;;;;2.85;0.93;;;;;;;30.77;47.80;100609.66;5065706;27;65964;-38
2021/08/26 06:32:06;;;;;;;2.15;0.90;;;;;;;30.73;48.57;100607.41;5075233;27;69720;-39
2021/08/26 06:34:45;;;;;;;6.18;1.20;;;;;;;30.75;48.01;100598.22;5077838;27;65936;-38
2021/08/26 06:37:20;;;;;;;4.80;1.00;;;;;;;30.72;47.75;100596.78;5075830;27;69014;-38
2021/08/26 06:39:51;;;;;;;11.70;0.93;;;;;;;30.69;48.82;100597.22;5077938;27;66235;-39
2021/08/26 06:42:24;;;;;;;4.63;1.30;;;;;;;30.64;47.90;100592.47;5074419;27;69370;-39
2021/08/26 06:44:54;;;;;;;13.43;1.02;;;;;;;30.70;48.21;100605.16;5070509;27;66172;-37
2021/08/26 06:47:25;;;;;;;2.73;1.10;;;;;;;30.69;48.60;100602.66;5057011;28;70059;-39
2021/08/26 06:49:57;;;;;;;1.73;1.10;;;;;;;30.67;48.57;100597.47;5073472;27;65011;-39
2021/08/26 06:52:37;;;;;;;0.85;0.50;;;;;;;30.65;48.08;100594.16;5070074;27;70560;-39
2021/08/26 06:55:09;;;;;;;5.38;0.68;;;;;;;30.58;47.70;100585.28;5077669;27;66481;-39
2021/08/26 06:57:46;;;;;;;6.43;0.88;;;;;;;30.60;47.82;100572.34;5076348;27;69313;-40
2021/08/26 07:00:19;;;;;;;0.75;0.50;;;;;;;30.53;47.48;100558.03;5049368;28;66186;-41
2021/08/26 07:02:49;;;;;;;0.57;0.50;;;;;;;30.56;46.68;100560.31;5075014;27;69413;-40
2021/08/26 07:05:21;;;;;;;0.93;0.43;;;;;;;30.43;46.49;100550.47;5071441;27;66023;-40
2021/08/26 07:07:52;;;;;;;4.22;0.52;;;;;;;30.38;46.46;100533.25;5077056;27;69226;-39
2021/08/26 07:10:30;;;;;;;4.57;0.75;;;;;;;30.45;46.88;100536.69;5072344;27;66548;-39
2021/08/26 07:13:04;;;;;;;1.77;0.35;;;;;;;30.43;46.15;100533.41;5074425;27;69926;-39
2021/08/26 07:15:36;;;;;;;0.77;0.40;;;;;;;30.41;45.44;100530.09;5072996;27;66945;-40
2021/08/26 07:18:08;;;;;;;1.75;0.52;;;;;;;30.38;45.96;100531.38;5071652;27;69098;-39
2021/08/26 07:20:45;;;;;;;1.35;0.60;;;;;;;30.37;44.97;100529.72;5073585;27;65928;-38
2021/08/26 07:23:15;;;;;;;1.33;0.50;;;;;;;30.34;45.33;100526.63;5071210;27;70506;-39
2021/08/26 07:25:46;;;;;;;2.13;0.63;;;;;;;30.31;45.23;100522.47;5070651;27;65410;-39
2021/08/26 07:28:17;;;;;;;2.20;0.60;;;;;;;30.23;45.99;100501.16;5071113;27;69578;-39
2021/08/26 07:30:48;;;;;;;1.27;0.63;;;;;;;30.28;46.61;100499.44;5067634;28;66630;-38
2021/08/26 07:33:22;;;;;;;1.83;0.82;;;;;;;30.34;45.85;100507.69;5066290;27;70332;-39
2021/08/26 07:35:55;;;;;;;1.20;0.80;;;;;;;30.34;45.69;100492.28;5073676;27;66532;-39
2021/08/26 07:38:28;;;;;;;1.92;1.13;;;;;;;30.35;46.40;100485.00;5071598;27;69531;-38
2021/08/26 07:41:00;;;;;;;4.03;1.35;;;;;;;30.34;46.87;100491.44;5074784;27;66365;-39
2021/08/26 07:43:36;;;;;;;4.72;1.50;;;;;;;30.33;45.80;100489.81;5073669;27;69761;-38
2021/08/26 07:46:13;;;;;;;2.83;1.80;;;;;;;30.34;45.39;100486.03;5072562;27;66851;-40
2021/08/26 07:48:46;;;;;;;2.13;1.40;;;;;;;30.30;45.00;100480.25;5054696;28;70171;-39
2021/08/26 07:51:26;;;;;;;2.25;1.50;;;;;;;30.27;45.10;100486.94;5067213;27;66223;-38
2021/08/26 07:53:56;;;;;;;1.90;1.80;;;;;;;30.24;44.28;100481.16;5069891;27;70623;-39
2021/08/26 07:56:27;;;;;;;4.07;1.92;;;;;;;30.21;44.62;100466.19;5067940;27;65505;-39
2021/08/26 07:58:58;;;;;;;3.83;2.50;;;;;;;30.23;44.59;100474.09;5070254;27;70147;-38
2021/08/26 08:01:28;;;;;;;3.33;2.42;;;;;;;30.23;43.75;100491.16;5071976;27;66540;-40
2021/08/26 08:03:59;;;;;;;1.92;1.83;;;;;;;30.20;44.17;100496.16;5069641;27;69048;-39
2021/08/26 08:06:29;;;;;;;5.50;2.10;;;;;;;30.16;44.21;100506.59;5079751;27;66256;-38
2021/08/26 08:09:06;;;;;;;2.95;2.10;;;;;;;30.17;43.95;100515.53;5075074;27;69146;-39
2021/08/26 08:11:41;;;;;;;4.88;2.22;;;;;;;30.12;44.22;100508.09;5080810;27;65305;-38
2021/08/26 08:14:17;;;;;;;1.98;1.85;;;;;;;30.09;43.89;100510.41;5069048;27;69684;-38
2021/08/26 08:17:17;;;;;;;2.78;1.83;;;;;;;30.09;43.74;100527.50;5071335;27;66689;-39
2021/08/26 08:19:55;;;;;;;5.07;2.20;;;;;;;30.10;44.59;100537.25;5053752;27;69396;-39
2021/08/26 08:22:26;;;;;;;5.50;2.47;;;;;;;30.16;46.42;100528.25;5072075;27;65792;-38
2021/08/26 08:25:00;;;;;;;3.05;2.72;;;;;;;30.23;48.92;100544.44;5051286;27;69341;-39
2021/08/26 08:27:40;;;;;;;7.82;2.35;;;;;;;30.39;49.62;100553.84;5073834;27;67065;-39
2021/08/26 08:30:19;;;;;;;10.30;2.90;;;;;;;30.44;50.87;100556.69;5064531;27;69706;-38
2021/08/26 08:33:19;;;;;;;31.73;2.92;;;;;;;30.06;51.11;100492.75;5064626;27;66704;-38
2021/08/26 08:35:52;;;;;;;6.95;2.85;;;;;;;30.59;52.67;100561.72;5069343;28;69183;-39
2021/08/26 08:38:27;;;;;;;18.03;3.17;;;;;;;30.67;53.32;100575.81;5068827;27;66308;-40
2021/08/26 08:41:03;;;;;;;13.13;2.80;;;;;;;30.75;53.44;100563.00;5065997;27;70228;-38
2021/08/26 08:43:39;;;;;;;7.53;2.55;;;;;;;30.78;53.69;100554.44;5067317;27;65353;-37
2021/08/26 08:46:20;;;;;;;8.98;2.75;;;;;;;30.84;54.17;100556.25;5072840;27;70330;-39
2021/08/26 08:48:58;;;;;;;9.55;2.20;;;;;;;30.87;55.14;100551.22;5069852;27;66443;-38
2021/08/26 08:51:31;;;;;;;6.28;2.78;;;;;;;30.91;56.54;100552.41;5067557;27;71019;-44
2021/08/26 08:54:11;;;;;;;17.85;2.10;;;;;;;30.95;57.31;100563.59;5072436;27;66505;-38
2021/08/26 08:56:46;;;;;;;17.25;3.38;;;;;;;30.91;57.98;100546.16;5068687;27;69723;-39
2021/08/26 08:59:24;;;;;;;10.13;2.30;;;;;;;30.55;60.09;100488.28;5067537;27;66072;-39
2021/08/26 09:02:02;;;;;;;17.70;2.58;;;;;;;31.00;60.61;100554.81;5051416;27;71312;-39
2021/08/26 09:04:35;;;;;;;7.47;1.60;;;;;;;30.94;61.43;100545.72;5049819;27;67574;-38
2021/08/26 09:07:29;;;;;;;2.30;1.90;;;;;;;30.69;61.76;100503.28;5085193;27;69938;-38
2021/08/26 09:10:01;;;;;;;;;;;;;;;30.80;63.26;100538.81;5064681;28;66826;-38
2021/08/26 09:12:41;;;;;;;3.63;2.40;;;;;;;31.01;62.63;100538.34;5065692;27;70132;-38
2021/08/26 09:15:17;;;;;;;;;;;;;;;30.78;64.02;100521.94;5072334;27;66434;-38
2021/08/26 09:17:49;;;;;;;1.77;1.65;;;;;;;30.98;63.15;100514.41;5065398;27;69830;-37
2021/08/26 09:20:51;;;;;;;2.63;1.70;;;;;;;30.73;63.61;100480.13;5063290;27;66278;-39
2021/08/26 09:23:30;;;;;;;3.38;1.40;;;;;;;31.07;63.81;100529.28;5087488;27;69482;-39
2021/08/26 09:26:24;;;;;;;3.53;1.90;;;;;;;30.98;64.24;100541.50;5055205;27;67241;-38
2021/08/26 09:29:05;;;;;;;6.88;2.38;;;;;;;31.07;64.42;100567.22;5073410;27;70788;-38
2021/08/26 09:31:39;;;;;;;3.20;1.95;;;;;;;31.09;63.98;100565.09;5060414;28;66491;-38
2021/08/26 09:34:13;;;;;;;4.50;1.83;;;;;;;31.10;64.41;100564.03;5068849;27;70537;-38
2021/08/26 09:36:55;;;;;;;2.22;2.03;;;;;;;31.12;65.05;100559.22;5068729;27;64751;-39
2021/08/26 09:39:32;;;;;;;6.20;2.20;;;;;;;31.13;65.01;100555.44;5052884;28;70478;-40
2021/08/26 09:42:05;;;;;;;2.42;2.15;;;;;;;31.12;65.09;100550.25;5037387;28;65918;-38
2021/08/26 09:44:47;;;;;;;8.27;2.60;;;;;;;31.12;65.65;100553.81;5072348;27;69857;-37
2021/08/26 09:47:20;;;;;;;6.65;2.53;;;;;;;31.14;65.04;100557.09;5068544;27;66299;-38
2021/08/26 09:49:52;;;;;;;9.00;2.75;;;;;;;31.14;65.73;100561.69;5069218;27;70628;-38
2021/08/26 09:52:25;;;;;;;3.25;2.15;;;;;;;31.16;65.64;100565.81;5048302;28;65838;-39
2021/08/26 09:54:59;;;;;;;2.53;2.33;;;;;;;31.16;65.38;100560.41;5072780;27;70298;-38
2021/08/26 09:57:33;;;;;;;7.78;2.28;;;;;;;30.97;66.24;100539.00;5076691;27;66531;-38
2021/08/26 10:00:29;;;;;;;6.65;2.50;;;;;;;31.20;66.93;100584.31;5071477;27;68805;-38
2021/08/26 10:03:02;;;;;;;4.22;3.05;;;;;;;31.26;65.45;100580.69;5054037;27;66775;-39
2021/08/26 10:05:38;;;;;;;3.95;2.47;;;;;;;31.34;64.33;100592.06;5045603;28;70242;-39
2021/08/26 10:08:13;;;;;;;3.28;3.00;;;;;;;31.36;64.14;100602.69;5072693;27;68218;-38
2021/08/26 10:10:45;;;;;;;4.00;2.75;;;;;;;31.32;63.84;100609.59;5071237;27;69467;-38
2021/08/26 10:13:16;;;;;;;3.53;3.17;;;;;;;31.30;64.08;100609.00;5063919;27;65458;-38
2021/08/26 10:15:51;;;;;;;3.20;3.00;;;;;;;31.31;64.38;100607.94;5073867;27;70042;-38
2021/08/26 10:18:28;;;;;;;3.70;2.97;;;;;;;31.26;64.22;100602.38;5042542;27;65495;-38
2021/08/26 10:20:59;;;;;;;3.20;2.92;;;;;;;31.24;63.52;100596.38;5086592;27;70596;-38
2021/08/26 10:23:38;;;;;;;3.17;2.97;;;;;;;31.24;63.44;100591.78;5072737;27;66166;-39
2021/08/26 10:26:19;;;;;;;3.17;2.97;;;;;;;31.27;62.87;100604.88;5073138;27;70751;-40
2021/08/26 10:28:52;;;;;;;3.10;2.90;;;;;;;31.31;62.92;100606.03;5071937;27;66716;-39
2021/08/26 10:31:38;;;;;;;3.20;3.00;;;;;;;31.28;62.82;100621.94;5075931;27;70084;-39
2021/08/26 10:34:26;;;;;;;3.25;3.05;;;;;;;31.34;62.81;100624.59;5069838;27;65415;-39
2021/08/26 10:37:22;;;;;;;2.95;2.75;;;;;;;31.03;62.79;100582.25;5073547;27;70023;-38
2021/08/26 10:39:59;;;;;;;3.42;3.13;;;;;;;31.24;63.16;100610.75;5057810;28;65605;-39
2021/08/26 10:42:41;;;;;;;3.03;2.83;;;;;;;31.34;63.10;100631.88;5073935;27;69840;-38
2021/08/26 10:45:50;;;;;;;3.00;2.80;;;;;;;31.29;63.19;100639.88;5075192;27;65751;-38
2021/08/26 10:48:32;;;;;;;2.28;2.17;;;;;;;31.33;63.22;100646.47;5041953;28;71700;-38
2021/08/26 10:51:20;;;;;;;3.08;2.88;;;;;;;31.29;63.10;100639.88;5071220;27;67050;-38
2021/08/26 10:54:24;;;;;;;3.03;2.83;;;;;;;31.19;64.52;100650.44;5028525;27;69717;-38
2021/08/26 10:57:29;;;;;;;2.90;2.70;;;;;;;31.14;63.83;100654.63;5074977;27;65705;-37
2021/08/26 11:00:42;;;;;;;4.47;2.83;;;;;;;31.13;64.32;100661.13;5074761;27;68633;-44
2021/08/26 11:03:47;;;;;;;4.13;2.30;;;;;;;31.09;66.01;100662.63;5052369;27;65240;-41
2021/08/26 11:06:30;;;;;;;3.95;2.28;;;;;;;31.12;64.50;100672.16;5080137;27;70805;-39
2021/08/26 11:09:36;;;;;;;3.08;2.10;;;;;;;30.73;65.37;100644.47;5056087;27;66049;-38
2021/08/26 11:12:24;;;;;;;2.38;1.92;;;;;;;30.80;64.92;100641.72;5073740;27;69546;-39
2021/08/26 11:15:25;;;;;;;6.03;2.17;;;;;;;31.04;64.93;100678.75;5072165;27;65561;-39
2021/08/26 11:18:33;;;;;;;1.75;1.65;;;;;;;30.99;65.03;100689.41;5068472;27;69126;-38
2021/08/26 11:21:11;;;;;;;1.70;1.55;;;;;;;31.07;64.61;100686.41;5055058;27;66095;-38
2021/08/26 11:23:49;;;;;;;2.80;2.05;;;;;;;31.05;64.54;100679.56;5078063;27;69300;-38
2021/08/26 11:26:53;;;;;;;1.88;1.63;;;;;;;31.00;65.35;100685.66;5076029;27;65087;-38
2021/08/26 11:29:52;;;;;;;2.28;1.60;;;;;;;31.06;64.35;100687.44;5075035;27;69858;-39
2021/08/26 11:32:27;;;;;;;2.85;2.60;;;;;;;31.05;65.12;100683.09;5067445;27;66178;-38
2021/08/26 11:35:01;;;;;;;2.28;2.08;;;;;;;31.10;64.73;100688.66;5072114;27;69980;-37
2021/08/26 11:37:39;;;;;;;1.85;1.73;;;;;;;30.88;64.68;100666.63;5075618;27;65322;-38
2021/08/26 11:43:55;;;;;;;2.08;1.90;;;;;;;31.14;65.62;100708.81;5053247;27;66161;-38
2021/08/26 11:46:27;;;;;;;2.60;2.05;;;;;;;31.03;65.26;100690.59;5078041;27;68653;-38
2021/08/26 11:49:16;;;;;;;3.10;1.70;;;;;;;31.19;65.61;100710.03;5070146;27;66192;-38
2021/08/26 11:52:18;;;;;;;;;;;;;;;30.89;67.56;100710.78;5079064;27;69317;-37
2021/08/26 11:55:01;;;;;;;1.90;1.70;;;;;;;31.16;65.38;100717.56;5091230;27;67035;-39
2021/08/26 11:57:39;;;;;;;1.90;1.60;;;;;;;31.20;65.21;100717.94;5072224;27;70262;-38
2021/08/26 12:00:17;;;;;;;2.08;1.80;;;;;;;31.24;65.49;100718.31;5070667;27;66045;-39
2021/08/26 12:02:57;;;;;;;2.50;2.30;;;;;;;31.25;65.57;100722.66;5061584;27;69145;-39
2021/08/26 12:05:30;;;;;;;2.00;1.80;;;;;;;31.26;65.43;100719.75;5074224;27;66721;-38
2021/08/26 12:08:18;;;;;;;2.25;2.08;;;;;;;31.25;65.52;100714.53;5075550;27;70188;-39
2021/08/26 12:10:53;;;;;;;2.45;2.30;;;;;;;31.27;65.80;100723.28;5060636;27;66160;-40
2021/08/26 12:13:31;;;;;;;2.30;2.10;;;;;;;31.20;65.90;100712.50;5071925;27;70243;-37
2021/08/26 12:16:23;;;;;;;2.13;1.98;;;;;;;31.28;65.69;100714.09;5077995;27;65258;-38
2021/08/26 12:19:05;;;;;;;2.80;2.38;;;;;;;31.27;65.44;100717.88;5085038;27;72208;-39
2021/08/26 12:21:36;;;;;;;2.85;2.65;;;;;;;31.16;66.50;100712.13;5085509;27;66205;-38
2021/08/26 12:24:09;;;;;;;6.38;2.97;;;;;;;31.11;66.84;100720.13;5054739;27;69779;-39
2021/08/26 12:27:11;;;;;;;7.55;3.90;;;;;;;31.09;67.34;100721.38;5068551;27;66608;-37
2021/08/26 12:29:54;;;;;;;8.75;3.92;;;;;;;31.03;67.29;100725.00;5069016;27;69913;-38
2021/08/26 12:32:38;;;;;;;8.88;3.28;;;;;;;30.71;67.69;100677.19;5039702;28;65340;-38
2021/08/26 12:35:35;;;;;;;16.95;3.55;;;;;;;30.93;67.67;100739.09;5072323;27;69554;-39
2021/08/26 12:38:07;;;;;;;23.60;3.47;;;;;;;30.79;65.93;100730.22;5072766;27;65409;-38
2021/08/26 12:41:24;;;;;;;12.85;3.22;;;;;;;30.30;64.82;100685.06;5055727;28;69889;-38
2021/08/26 12:44:28;;;;;;;14.68;3.72;;;;;;;30.48;63.69;100720.31;5070910;27;66102;-38
2021/08/26 12:47:38;;;;;;;14.02;2.90;;;;;;;30.33;62.07;100717.09;5065994;27;68241;-38
2021/08/26 12:50:51;;;;;;;11.38;2.75;;;;;;;29.94;61.98;100675.75;5069034;27;66283;-38